sensor_id;sensor_type;location;lat;lon;timestamp;P1;durP1;ratioP1;P2;durP2;ratioP2
68942;SDS011;60852;52.190;4.422;2022-08-11T00:00:35;5.98;;;5.98;;
68942;SDS011;60852;52.190;4.422;2022-08-11T00:03:07;5.84;;;5.84;;
68942;SDS011;60852;52.190;4.422;2022-08-11T00:05:43;5.74;;;5.74;;
68942;SDS011;60852;52.190;4.422;2022-08-11T00:08:09;6.04;;;6.04;;
68942;SDS011;60852;52.190;4.422;2022-08-11T00:13:39;6.02;;;6.02;;
68942;SDS011;60852;52.190;4.422;2022-08-11T00:16:13;5.53;;;5.53;;
68942;SDS011;60852;52.190;4.422;2022-08-11T00:18:45;5.44;;;5.44;;
68942;SDS011;60852;52.190;4.422;2022-08-11T00:21:13;5.63;;;5.63;;
68942;SDS011;60852;52.190;4.422;2022-08-11T00:23:41;5.46;;;5.46;;
68942;SDS011;60852;52.190;4.422;2022-08-11T00:26:09;5.65;;;5.65;;
68942;SDS011;60852;52.190;4.422;2022-08-11T00:28:37;5.97;;;5.97;;
68942;SDS011;60852;52.190;4.422;2022-08-11T00:31:05;5.85;;;5.85;;
68942;SDS011;60852;52.190;4.422;2022-08-11T00:33:40;6.00;;;6.00;;
68942;SDS011;60852;52.190;4.422;2022-08-11T00:36:08;5.77;;;5.77;;
68942;SDS011;60852;52.190;4.422;2022-08-11T00:38:39;5.76;;;5.76;;
68942;SDS011;60852;52.190;4.422;2022-08-11T00:49:09;5.76;;;5.76;;
68942;SDS011;60852;52.190;4.422;2022-08-11T00:51:54;6.20;;;6.20;;
68942;SDS011;60852;52.190;4.422;2022-08-11T00:57:38;6.12;;;6.12;;
68942;SDS011;60852;52.190;4.422;2022-08-11T01:00:34;5.98;;;5.98;;
68942;SDS011;60852;52.190;4.422;2022-08-11T01:03:33;6.16;;;6.16;;
68942;SDS011;60852;52.190;4.422;2022-08-11T01:12:04;5.92;;;5.92;;
68942;SDS011;60852;52.190;4.422;2022-08-11T01:18:08;6.18;;;6.18;;
68942;SDS011;60852;52.190;4.422;2022-08-11T01:32:00;5.78;;;5.78;;
68942;SDS011;60852;52.190;4.422;2022-08-11T01:35:04;5.74;;;5.74;;
68942;SDS011;60852;52.190;4.422;2022-08-11T01:49:30;6.07;;;6.07;;
68942;SDS011;60852;52.190;4.422;2022-08-11T01:52:12;5.90;;;5.90;;
68942;SDS011;60852;52.190;4.422;2022-08-11T02:00:07;5.62;;;5.62;;
68942;SDS011;60852;52.190;4.422;2022-08-11T02:02:40;5.90;;;5.90;;
68942;SDS011;60852;52.190;4.422;2022-08-11T02:11:29;6.02;;;6.02;;
68942;SDS011;60852;52.190;4.422;2022-08-11T02:14:17;6.12;;;6.12;;
68942;SDS011;60852;52.190;4.422;2022-08-11T02:31:11;6.05;;;6.05;;
68942;SDS011;60852;52.190;4.422;2022-08-11T02:34:11;5.91;;;5.91;;
68942;SDS011;60852;52.190;4.422;2022-08-11T02:42:39;6.21;;;6.21;;
68942;SDS011;60852;52.190;4.422;2022-08-11T02:51:38;5.80;;;5.80;;
68942;SDS011;60852;52.190;4.422;2022-08-11T02:54:26;5.91;;;5.91;;
68942;SDS011;60852;52.190;4.422;2022-08-11T02:57:04;5.96;;;5.96;;
68942;SDS011;60852;52.190;4.422;2022-08-11T03:10:13;6.18;;;6.18;;
68942;SDS011;60852;52.190;4.422;2022-08-11T03:12:56;5.97;;;5.97;;
68942;SDS011;60852;52.190;4.422;2022-08-11T03:16:06;6.06;;;6.06;;
68942;SDS011;60852;52.190;4.422;2022-08-11T03:21:47;6.18;;;6.18;;
68942;SDS011;60852;52.190;4.422;2022-08-11T03:24:32;6.13;;;6.13;;
68942;SDS011;60852;52.190;4.422;2022-08-11T03:29:48;6.22;;;6.22;;
68942;SDS011;60852;52.190;4.422;2022-08-11T03:35:39;6.06;;;6.06;;
68942;SDS011;60852;52.190;4.422;2022-08-11T03:38:13;6.30;;;6.30;;
68942;SDS011;60852;52.190;4.422;2022-08-11T03:49:41;6.55;;;6.55;;
68942;SDS011;60852;52.190;4.422;2022-08-11T04:20:37;6.58;;;6.58;;
68942;SDS011;60852;52.190;4.422;2022-08-11T04:26:05;6.86;;;6.86;;
68942;SDS011;60852;52.190;4.422;2022-08-11T04:28:59;6.57;;;6.57;;
68942;SDS011;60852;52.190;4.422;2022-08-11T04:31:56;6.32;;;6.32;;
68942;SDS011;60852;52.190;4.422;2022-08-11T04:43:14;7.03;;;7.03;;
68942;SDS011;60852;52.190;4.422;2022-08-11T05:04:07;7.28;;;7.28;;
68942;SDS011;60852;52.190;4.422;2022-08-11T05:07:56;7.53;;;7.53;;
68942;SDS011;60852;52.190;4.422;2022-08-11T05:16:26;6.74;;;6.74;;
68942;SDS011;60852;52.190;4.422;2022-08-11T05:19:18;6.91;;;6.91;;
68942;SDS011;60852;52.190;4.422;2022-08-11T05:22:05;6.49;;;6.49;;
68942;SDS011;60852;52.190;4.422;2022-08-11T05:25:01;6.68;;;6.68;;
68942;SDS011;60852;52.190;4.422;2022-08-11T05:30:45;6.52;;;6.52;;
68942;SDS011;60852;52.190;4.422;2022-08-11T05:33:32;6.56;;;6.56;;
68942;SDS011;60852;52.190;4.422;2022-08-11T05:36:30;7.05;;;7.05;;
68942;SDS011;60852;52.190;4.422;2022-08-11T05:39:13;7.08;;;7.08;;
68942;SDS011;60852;52.190;4.422;2022-08-11T05:42:04;7.45;;;7.45;;
68942;SDS011;60852;52.190;4.422;2022-08-11T05:44:51;7.21;;;7.21;;
68942;SDS011;60852;52.190;4.422;2022-08-11T05:47:41;7.09;;;7.09;;
68942;SDS011;60852;52.190;4.422;2022-08-11T05:50:31;7.53;;;7.53;;
68942;SDS011;60852;52.190;4.422;2022-08-11T05:53:16;7.33;;;7.33;;
68942;SDS011;60852;52.190;4.422;2022-08-11T05:56:03;7.06;;;7.06;;
68942;SDS011;60852;52.190;4.422;2022-08-11T05:58:45;7.18;;;7.18;;
68942;SDS011;60852;52.190;4.422;2022-08-11T06:01:29;7.17;;;7.17;;
68942;SDS011;60852;52.190;4.422;2022-08-11T06:03:57;7.16;;;7.16;;
68942;SDS011;60852;52.190;4.422;2022-08-11T06:11:53;6.70;;;6.70;;
68942;SDS011;60852;52.190;4.422;2022-08-11T06:14:23;6.94;;;6.94;;
68942;SDS011;60852;52.190;4.422;2022-08-11T06:16:52;6.91;;;6.91;;
68942;SDS011;60852;52.190;4.422;2022-08-11T06:19:23;6.85;;;6.85;;
68942;SDS011;60852;52.190;4.422;2022-08-11T06:21:57;6.95;;;6.95;;
68942;SDS011;60852;52.190;4.422;2022-08-11T06:24:25;6.78;;;6.78;;
68942;SDS011;60852;52.190;4.422;2022-08-11T06:26:53;6.65;;;6.65;;
68942;SDS011;60852;52.190;4.422;2022-08-11T06:29:21;6.85;;;6.85;;
68942;SDS011;60852;52.190;4.422;2022-08-11T06:31:52;6.73;;;6.73;;
68942;SDS011;60852;52.190;4.422;2022-08-11T06:36:54;6.97;;;6.97;;
68942;SDS011;60852;52.190;4.422;2022-08-11T06:39:51;7.00;;;7.00;;
68942;SDS011;60852;52.190;4.422;2022-08-11T06:47:58;7.29;;;7.29;;
68942;SDS011;60852;52.190;4.422;2022-08-11T06:50:26;7.55;;;7.55;;
68942;SDS011;60852;52.190;4.422;2022-08-11T06:53:13;7.08;;;7.08;;
68942;SDS011;60852;52.190;4.422;2022-08-11T06:55:43;7.18;;;7.18;;
68942;SDS011;60852;52.190;4.422;2022-08-11T06:58:35;6.68;;;6.68;;
68942;SDS011;60852;52.190;4.422;2022-08-11T07:01:28;7.04;;;7.04;;
68942;SDS011;60852;52.190;4.422;2022-08-11T07:04:10;6.64;;;6.64;;
68942;SDS011;60852;52.190;4.422;2022-08-11T07:06:48;6.66;;;6.66;;
68942;SDS011;60852;52.190;4.422;2022-08-11T07:12:31;6.43;;;6.43;;
68942;SDS011;60852;52.190;4.422;2022-08-11T07:15:21;6.76;;;6.76;;
68942;SDS011;60852;52.190;4.422;2022-08-11T07:18:27;6.25;;;6.25;;
68942;SDS011;60852;52.190;4.422;2022-08-11T07:21:33;6.04;;;6.04;;
68942;SDS011;60852;52.190;4.422;2022-08-11T07:24:28;6.25;;;6.25;;
68942;SDS011;60852;52.190;4.422;2022-08-11T07:27:18;6.54;;;6.54;;
68942;SDS011;60852;52.190;4.422;2022-08-11T07:30:06;6.58;;;6.58;;
68942;SDS011;60852;52.190;4.422;2022-08-11T07:32:36;6.81;;;6.81;;
68942;SDS011;60852;52.190;4.422;2022-08-11T07:35:15;7.03;;;7.03;;
68942;SDS011;60852;52.190;4.422;2022-08-11T07:37:49;7.44;;;7.44;;
68942;SDS011;60852;52.190;4.422;2022-08-11T07:40:22;7.06;;;7.06;;
68942;SDS011;60852;52.190;4.422;2022-08-11T07:42:49;6.46;;;6.46;;
68942;SDS011;60852;52.190;4.422;2022-08-11T07:45:16;5.99;;;5.99;;
68942;SDS011;60852;52.190;4.422;2022-08-11T07:48:01;5.54;;;5.54;;
68942;SDS011;60852;52.190;4.422;2022-08-11T07:50:46;4.99;;;4.99;;
68942;SDS011;60852;52.190;4.422;2022-08-11T07:53:32;4.50;;;4.50;;
68942;SDS011;60852;52.190;4.422;2022-08-11T07:56:02;4.69;;;4.69;;
68942;SDS011;60852;52.190;4.422;2022-08-11T07:58:33;4.42;;;4.42;;
68942;SDS011;60852;52.190;4.422;2022-08-11T08:01:23;4.79;;;4.79;;
68942;SDS011;60852;52.190;4.422;2022-08-11T08:04:14;4.69;;;4.69;;
68942;SDS011;60852;52.190;4.422;2022-08-11T08:07:01;4.22;;;4.22;;
68942;SDS011;60852;52.190;4.422;2022-08-11T08:09:48;4.54;;;4.54;;
68942;SDS011;60852;52.190;4.422;2022-08-11T08:12:33;4.05;;;4.05;;
68942;SDS011;60852;52.190;4.422;2022-08-11T08:15:19;3.79;;;3.79;;
68942;SDS011;60852;52.190;4.422;2022-08-11T08:18:05;3.85;;;3.85;;
68942;SDS011;60852;52.190;4.422;2022-08-11T08:20:34;3.68;;;3.68;;
68942;SDS011;60852;52.190;4.422;2022-08-11T08:23:03;3.77;;;3.77;;
68942;SDS011;60852;52.190;4.422;2022-08-11T08:25:31;4.09;;;4.09;;
68942;SDS011;60852;52.190;4.422;2022-08-11T08:28:08;3.80;;;3.80;;
68942;SDS011;60852;52.190;4.422;2022-08-11T08:30:38;3.69;;;3.69;;
68942;SDS011;60852;52.190;4.422;2022-08-11T08:35:56;4.08;;;4.08;;
68942;SDS011;60852;52.190;4.422;2022-08-11T08:38:42;4.24;;;4.24;;
68942;SDS011;60852;52.190;4.422;2022-08-11T08:41:12;3.81;;;3.81;;
68942;SDS011;60852;52.190;4.422;2022-08-11T08:43:44;3.64;;;3.64;;
68942;SDS011;60852;52.190;4.422;2022-08-11T08:46:16;3.69;;;3.69;;
68942;SDS011;60852;52.190;4.422;2022-08-11T08:48:46;3.83;;;3.83;;
68942;SDS011;60852;52.190;4.422;2022-08-11T08:51:14;4.10;;;4.10;;
68942;SDS011;60852;52.190;4.422;2022-08-11T08:54:00;3.57;;;3.57;;
68942;SDS011;60852;52.190;4.422;2022-08-11T08:56:31;3.64;;;3.64;;
68942;SDS011;60852;52.190;4.422;2022-08-11T08:59:00;3.46;;;3.46;;
68942;SDS011;60852;52.190;4.422;2022-08-11T09:01:37;3.69;;;3.69;;
68942;SDS011;60852;52.190;4.422;2022-08-11T09:04:10;3.51;;;3.51;;
68942;SDS011;60852;52.190;4.422;2022-08-11T09:06:38;3.55;;;3.55;;
68942;SDS011;60852;52.190;4.422;2022-08-11T09:09:05;3.35;;;3.35;;
68942;SDS011;60852;52.190;4.422;2022-08-11T09:11:36;3.64;;;3.64;;
68942;SDS011;60852;52.190;4.422;2022-08-11T09:14:23;3.48;;;3.48;;
68942;SDS011;60852;52.190;4.422;2022-08-11T09:17:19;3.28;;;3.28;;
68942;SDS011;60852;52.190;4.422;2022-08-11T09:19:46;3.43;;;3.43;;
68942;SDS011;60852;52.190;4.422;2022-08-11T09:22:18;3.19;;;3.19;;
68942;SDS011;60852;52.190;4.422;2022-08-11T09:25:07;3.39;;;3.39;;
68942;SDS011;60852;52.190;4.422;2022-08-11T09:27:52;3.47;;;3.47;;
68942;SDS011;60852;52.190;4.422;2022-08-11T09:30:20;3.23;;;3.23;;
68942;SDS011;60852;52.190;4.422;2022-08-11T09:32:55;3.20;;;3.20;;
68942;SDS011;60852;52.190;4.422;2022-08-11T09:35:28;3.36;;;3.36;;
68942;SDS011;60852;52.190;4.422;2022-08-11T09:37:57;2.91;;;2.91;;
68942;SDS011;60852;52.190;4.422;2022-08-11T09:40:50;2.91;;;2.91;;
68942;SDS011;60852;52.190;4.422;2022-08-11T09:43:18;3.04;;;3.04;;
68942;SDS011;60852;52.190;4.422;2022-08-11T09:46:03;3.19;;;3.19;;
68942;SDS011;60852;52.190;4.422;2022-08-11T09:48:33;3.21;;;3.21;;
68942;SDS011;60852;52.190;4.422;2022-08-11T09:51:02;3.33;;;3.33;;
68942;SDS011;60852;52.190;4.422;2022-08-11T09:53:31;3.68;;;3.68;;
68942;SDS011;60852;52.190;4.422;2022-08-11T09:56:01;3.14;;;3.14;;
68942;SDS011;60852;52.190;4.422;2022-08-11T09:58:51;3.55;;;3.55;;
68942;SDS011;60852;52.190;4.422;2022-08-11T10:01:19;3.30;;;3.30;;
68942;SDS011;60852;52.190;4.422;2022-08-11T10:07:09;3.41;;;3.41;;
68942;SDS011;60852;52.190;4.422;2022-08-11T10:09:41;3.38;;;3.38;;
68942;SDS011;60852;52.190;4.422;2022-08-11T10:12:26;3.33;;;3.33;;
68942;SDS011;60852;52.190;4.422;2022-08-11T10:15:02;3.40;;;3.40;;
68942;SDS011;60852;52.190;4.422;2022-08-11T10:17:52;3.75;;;3.75;;
68942;SDS011;60852;52.190;4.422;2022-08-11T10:20:41;3.17;;;3.17;;
68942;SDS011;60852;52.190;4.422;2022-08-11T10:23:12;3.35;;;3.35;;
68942;SDS011;60852;52.190;4.422;2022-08-11T10:25:57;3.15;;;3.15;;
68942;SDS011;60852;52.190;4.422;2022-08-11T10:28:41;3.05;;;3.05;;
68942;SDS011;60852;52.190;4.422;2022-08-11T10:31:07;3.27;;;3.27;;
68942;SDS011;60852;52.190;4.422;2022-08-11T10:33:53;3.28;;;3.28;;
68942;SDS011;60852;52.190;4.422;2022-08-11T10:38:56;3.30;;;3.30;;
68942;SDS011;60852;52.190;4.422;2022-08-11T10:41:24;3.02;;;3.02;;
68942;SDS011;60852;52.190;4.422;2022-08-11T10:44:10;2.97;;;2.97;;
68942;SDS011;60852;52.190;4.422;2022-08-11T10:46:37;2.96;;;2.96;;
68942;SDS011;60852;52.190;4.422;2022-08-11T10:49:22;3.03;;;3.03;;
68942;SDS011;60852;52.190;4.422;2022-08-11T10:51:50;2.80;;;2.80;;
68942;SDS011;60852;52.190;4.422;2022-08-11T10:54:39;3.26;;;3.26;;
68942;SDS011;60852;52.190;4.422;2022-08-11T10:57:25;3.10;;;3.10;;
68942;SDS011;60852;52.190;4.422;2022-08-11T11:00:11;2.96;;;2.96;;
68942;SDS011;60852;52.190;4.422;2022-08-11T11:02:41;3.46;;;3.46;;
68942;SDS011;60852;52.190;4.422;2022-08-11T11:05:13;2.80;;;2.80;;
68942;SDS011;60852;52.190;4.422;2022-08-11T11:08:00;2.85;;;2.85;;
68942;SDS011;60852;52.190;4.422;2022-08-11T11:10:58;2.94;;;2.94;;
68942;SDS011;60852;52.190;4.422;2022-08-11T11:13:26;3.04;;;3.04;;
68942;SDS011;60852;52.190;4.422;2022-08-11T11:16:12;3.01;;;3.01;;
68942;SDS011;60852;52.190;4.422;2022-08-11T11:19:17;2.90;;;2.90;;
68942;SDS011;60852;52.190;4.422;2022-08-11T11:21:49;3.01;;;3.01;;
68942;SDS011;60852;52.190;4.422;2022-08-11T11:27:31;2.82;;;2.82;;
68942;SDS011;60852;52.190;4.422;2022-08-11T11:30:04;2.96;;;2.96;;
68942;SDS011;60852;52.190;4.422;2022-08-11T11:38:02;3.04;;;3.04;;
68942;SDS011;60852;52.190;4.422;2022-08-11T11:40:33;2.92;;;2.92;;
68942;SDS011;60852;52.190;4.422;2022-08-11T11:43:01;2.90;;;2.90;;
68942;SDS011;60852;52.190;4.422;2022-08-11T11:45:28;3.07;;;3.07;;
68942;SDS011;60852;52.190;4.422;2022-08-11T11:47:55;3.10;;;3.10;;
68942;SDS011;60852;52.190;4.422;2022-08-11T11:50:28;3.12;;;3.12;;
68942;SDS011;60852;52.190;4.422;2022-08-11T11:52:59;2.98;;;2.98;;
68942;SDS011;60852;52.190;4.422;2022-08-11T11:55:28;3.09;;;3.09;;
68942;SDS011;60852;52.190;4.422;2022-08-11T11:57:56;3.06;;;3.06;;
68942;SDS011;60852;52.190;4.422;2022-08-11T12:00:43;2.96;;;2.96;;
68942;SDS011;60852;52.190;4.422;2022-08-11T12:03:30;2.90;;;2.90;;
68942;SDS011;60852;52.190;4.422;2022-08-11T12:05:57;3.14;;;3.14;;
68942;SDS011;60852;52.190;4.422;2022-08-11T12:08:25;3.13;;;3.13;;
68942;SDS011;60852;52.190;4.422;2022-08-11T12:10:53;3.17;;;3.17;;
68942;SDS011;60852;52.190;4.422;2022-08-11T12:13:43;3.01;;;3.01;;
68942;SDS011;60852;52.190;4.422;2022-08-11T12:16:12;2.93;;;2.93;;
68942;SDS011;60852;52.190;4.422;2022-08-11T12:18:40;3.16;;;3.16;;
68942;SDS011;60852;52.190;4.422;2022-08-11T12:21:09;3.01;;;3.01;;
68942;SDS011;60852;52.190;4.422;2022-08-11T12:23:39;3.20;;;3.20;;
68942;SDS011;60852;52.190;4.422;2022-08-11T12:26:25;3.47;;;3.47;;
68942;SDS011;60852;52.190;4.422;2022-08-11T12:29:11;3.22;;;3.22;;
68942;SDS011;60852;52.190;4.422;2022-08-11T12:31:39;3.55;;;3.55;;
68942;SDS011;60852;52.190;4.422;2022-08-11T12:34:07;3.59;;;3.59;;
68942;SDS011;60852;52.190;4.422;2022-08-11T12:36:36;3.73;;;3.73;;
68942;SDS011;60852;52.190;4.422;2022-08-11T12:39:20;3.67;;;3.67;;
68942;SDS011;60852;52.190;4.422;2022-08-11T12:42:12;3.71;;;3.71;;
68942;SDS011;60852;52.190;4.422;2022-08-11T12:44:59;3.66;;;3.66;;
68942;SDS011;60852;52.190;4.422;2022-08-11T12:47:46;3.43;;;3.43;;
68942;SDS011;60852;52.190;4.422;2022-08-11T12:50:33;3.80;;;3.80;;
68942;SDS011;60852;52.190;4.422;2022-08-11T12:53:22;3.87;;;3.87;;
68942;SDS011;60852;52.190;4.422;2022-08-11T12:55:52;3.74;;;3.74;;
68942;SDS011;60852;52.190;4.422;2022-08-11T12:58:57;3.83;;;3.83;;
68942;SDS011;60852;52.190;4.422;2022-08-11T13:01:43;4.01;;;4.01;;
68942;SDS011;60852;52.190;4.422;2022-08-11T13:04:28;4.17;;;4.17;;
68942;SDS011;60852;52.190;4.422;2022-08-11T13:07:13;3.74;;;3.74;;
68942;SDS011;60852;52.190;4.422;2022-08-11T13:09:40;3.89;;;3.89;;
68942;SDS011;60852;52.190;4.422;2022-08-11T13:12:09;4.02;;;4.02;;
68942;SDS011;60852;52.190;4.422;2022-08-11T13:14:54;4.20;;;4.20;;
68942;SDS011;60852;52.190;4.422;2022-08-11T13:17:22;4.01;;;4.01;;
68942;SDS011;60852;52.190;4.422;2022-08-11T13:19:50;3.72;;;3.72;;
68942;SDS011;60852;52.190;4.422;2022-08-11T13:22:18;3.70;;;3.70;;
68942;SDS011;60852;52.190;4.422;2022-08-11T13:24:46;3.57;;;3.57;;
68942;SDS011;60852;52.190;4.422;2022-08-11T13:27:15;4.04;;;4.04;;
68942;SDS011;60852;52.190;4.422;2022-08-11T13:29:42;4.17;;;4.17;;
68942;SDS011;60852;52.190;4.422;2022-08-11T13:32:11;3.83;;;3.83;;
68942;SDS011;60852;52.190;4.422;2022-08-11T13:34:40;3.89;;;3.89;;
68942;SDS011;60852;52.190;4.422;2022-08-11T13:37:10;3.76;;;3.76;;
68942;SDS011;60852;52.190;4.422;2022-08-11T13:39:39;3.78;;;3.78;;
68942;SDS011;60852;52.190;4.422;2022-08-11T13:42:11;3.95;;;3.95;;
68942;SDS011;60852;52.190;4.422;2022-08-11T13:44:39;3.99;;;3.99;;
68942;SDS011;60852;52.190;4.422;2022-08-11T13:47:07;3.92;;;3.92;;
68942;SDS011;60852;52.190;4.422;2022-08-11T13:49:38;3.84;;;3.84;;
68942;SDS011;60852;52.190;4.422;2022-08-11T13:52:05;3.74;;;3.74;;
68942;SDS011;60852;52.190;4.422;2022-08-11T13:54:36;4.07;;;4.07;;
68942;SDS011;60852;52.190;4.422;2022-08-11T13:57:06;3.99;;;3.99;;
68942;SDS011;60852;52.190;4.422;2022-08-11T13:59:35;3.76;;;3.76;;
68942;SDS011;60852;52.190;4.422;2022-08-11T14:02:03;3.89;;;3.89;;
68942;SDS011;60852;52.190;4.422;2022-08-11T14:04:42;3.90;;;3.90;;
68942;SDS011;60852;52.190;4.422;2022-08-11T14:07:16;3.85;;;3.85;;
68942;SDS011;60852;52.190;4.422;2022-08-11T14:09:46;4.23;;;4.23;;
68942;SDS011;60852;52.190;4.422;2022-08-11T14:12:21;4.04;;;4.04;;
68942;SDS011;60852;52.190;4.422;2022-08-11T14:15:13;4.41;;;4.41;;
68942;SDS011;60852;52.190;4.422;2022-08-11T14:17:44;4.03;;;4.03;;
68942;SDS011;60852;52.190;4.422;2022-08-11T14:20:16;4.26;;;4.26;;
68942;SDS011;60852;52.190;4.422;2022-08-11T14:22:44;4.09;;;4.09;;
68942;SDS011;60852;52.190;4.422;2022-08-11T14:25:14;4.20;;;4.20;;
68942;SDS011;60852;52.190;4.422;2022-08-11T14:27:42;4.22;;;4.22;;
68942;SDS011;60852;52.190;4.422;2022-08-11T14:30:09;4.31;;;4.31;;
68942;SDS011;60852;52.190;4.422;2022-08-11T14:32:55;4.01;;;4.01;;
68942;SDS011;60852;52.190;4.422;2022-08-11T14:35:23;3.99;;;3.99;;
68942;SDS011;60852;52.190;4.422;2022-08-11T14:37:51;4.21;;;4.21;;
68942;SDS011;60852;52.190;4.422;2022-08-11T14:40:17;3.99;;;3.99;;
68942;SDS011;60852;52.190;4.422;2022-08-11T14:43:01;5.74;;;5.74;;
68942;SDS011;60852;52.190;4.422;2022-08-11T14:45:46;4.10;;;4.10;;
68942;SDS011;60852;52.190;4.422;2022-08-11T14:48:30;3.89;;;3.89;;
68942;SDS011;60852;52.190;4.422;2022-08-11T14:50:57;4.12;;;4.12;;
68942;SDS011;60852;52.190;4.422;2022-08-11T14:53:23;4.03;;;4.03;;
68942;SDS011;60852;52.190;4.422;2022-08-11T14:55:50;3.98;;;3.98;;
68942;SDS011;60852;52.190;4.422;2022-08-11T14:58:35;3.77;;;3.77;;
68942;SDS011;60852;52.190;4.422;2022-08-11T15:01:02;3.98;;;3.98;;
68942;SDS011;60852;52.190;4.422;2022-08-11T15:03:48;3.87;;;3.87;;
68942;SDS011;60852;52.190;4.422;2022-08-11T15:06:16;3.89;;;3.89;;
68942;SDS011;60852;52.190;4.422;2022-08-11T15:08:42;3.90;;;3.90;;
68942;SDS011;60852;52.190;4.422;2022-08-11T15:11:20;3.57;;;3.57;;
68942;SDS011;60852;52.190;4.422;2022-08-11T15:14:07;3.96;;;3.96;;
68942;SDS011;60852;52.190;4.422;2022-08-11T15:16:39;3.69;;;3.69;;
68942;SDS011;60852;52.190;4.422;2022-08-11T15:19:26;4.01;;;4.01;;
68942;SDS011;60852;52.190;4.422;2022-08-11T15:21:56;3.79;;;3.79;;
68942;SDS011;60852;52.190;4.422;2022-08-11T15:24:40;3.74;;;3.74;;
68942;SDS011;60852;52.190;4.422;2022-08-11T15:27:13;3.60;;;3.60;;
68942;SDS011;60852;52.190;4.422;2022-08-11T15:30:03;3.50;;;3.50;;
68942;SDS011;60852;52.190;4.422;2022-08-11T15:32:49;3.44;;;3.44;;
68942;SDS011;60852;52.190;4.422;2022-08-11T15:35:36;3.64;;;3.64;;
68942;SDS011;60852;52.190;4.422;2022-08-11T15:38:21;4.39;;;4.39;;
68942;SDS011;60852;52.190;4.422;2022-08-11T15:40:48;3.73;;;3.73;;
68942;SDS011;60852;52.190;4.422;2022-08-11T15:46:39;4.40;;;4.40;;
68942;SDS011;60852;52.190;4.422;2022-08-11T15:51:44;3.53;;;3.53;;
68942;SDS011;60852;52.190;4.422;2022-08-11T15:54:13;3.37;;;3.37;;
68942;SDS011;60852;52.190;4.422;2022-08-11T15:56:43;3.14;;;3.14;;
68942;SDS011;60852;52.190;4.422;2022-08-11T15:59:14;3.32;;;3.32;;
68942;SDS011;60852;52.190;4.422;2022-08-11T16:02:01;3.44;;;3.44;;
68942;SDS011;60852;52.190;4.422;2022-08-11T16:05:00;4.11;;;4.11;;
68942;SDS011;60852;52.190;4.422;2022-08-11T16:07:30;3.34;;;3.34;;
68942;SDS011;60852;52.190;4.422;2022-08-11T16:10:06;3.19;;;3.19;;
68942;SDS011;60852;52.190;4.422;2022-08-11T16:12:56;3.20;;;3.20;;
68942;SDS011;60852;52.190;4.422;2022-08-11T16:15:27;3.42;;;3.42;;
68942;SDS011;60852;52.190;4.422;2022-08-11T16:18:21;3.24;;;3.24;;
68942;SDS011;60852;52.190;4.422;2022-08-11T16:21:05;3.18;;;3.18;;
68942;SDS011;60852;52.190;4.422;2022-08-11T16:23:39;3.20;;;3.20;;
68942;SDS011;60852;52.190;4.422;2022-08-11T16:26:08;3.14;;;3.14;;
68942;SDS011;60852;52.190;4.422;2022-08-11T16:28:37;3.00;;;3.00;;
68942;SDS011;60852;52.190;4.422;2022-08-11T16:31:04;3.14;;;3.14;;
68942;SDS011;60852;52.190;4.422;2022-08-11T16:33:35;3.08;;;3.08;;
68942;SDS011;60852;52.190;4.422;2022-08-11T16:36:05;3.21;;;3.21;;
68942;SDS011;60852;52.190;4.422;2022-08-11T16:38:52;3.06;;;3.06;;
68942;SDS011;60852;52.190;4.422;2022-08-11T16:41:20;3.03;;;3.03;;
68942;SDS011;60852;52.190;4.422;2022-08-11T16:44:09;2.93;;;2.93;;
68942;SDS011;60852;52.190;4.422;2022-08-11T16:46:56;3.03;;;3.03;;
68942;SDS011;60852;52.190;4.422;2022-08-11T16:52:11;2.92;;;2.92;;
68942;SDS011;60852;52.190;4.422;2022-08-11T16:54:38;2.94;;;2.94;;
68942;SDS011;60852;52.190;4.422;2022-08-11T16:57:10;2.70;;;2.70;;
68942;SDS011;60852;52.190;4.422;2022-08-11T17:00:00;3.07;;;3.07;;
68942;SDS011;60852;52.190;4.422;2022-08-11T17:02:36;3.15;;;3.15;;
68942;SDS011;60852;52.190;4.422;2022-08-11T17:05:25;3.04;;;3.04;;
68942;SDS011;60852;52.190;4.422;2022-08-11T17:08:10;3.22;;;3.22;;
68942;SDS011;60852;52.190;4.422;2022-08-11T17:11:01;3.01;;;3.01;;
68942;SDS011;60852;52.190;4.422;2022-08-11T17:13:49;2.83;;;2.83;;
68942;SDS011;60852;52.190;4.422;2022-08-11T17:16:25;3.03;;;3.03;;
68942;SDS011;60852;52.190;4.422;2022-08-11T17:18:58;2.91;;;2.91;;
68942;SDS011;60852;52.190;4.422;2022-08-11T17:21:30;2.89;;;2.89;;
68942;SDS011;60852;52.190;4.422;2022-08-11T17:24:40;2.91;;;2.91;;
68942;SDS011;60852;52.190;4.422;2022-08-11T17:27:09;2.87;;;2.87;;
68942;SDS011;60852;52.190;4.422;2022-08-11T17:32:18;2.95;;;2.95;;
68942;SDS011;60852;52.190;4.422;2022-08-11T17:35:10;2.99;;;2.99;;
68942;SDS011;60852;52.190;4.422;2022-08-11T17:40:28;2.97;;;2.97;;
68942;SDS011;60852;52.190;4.422;2022-08-11T17:42:56;2.98;;;2.98;;
68942;SDS011;60852;52.190;4.422;2022-08-11T17:45:44;2.94;;;2.94;;
68942;SDS011;60852;52.190;4.422;2022-08-11T17:48:29;2.77;;;2.77;;
68942;SDS011;60852;52.190;4.422;2022-08-11T17:50:59;2.94;;;2.94;;
68942;SDS011;60852;52.190;4.422;2022-08-11T17:53:37;2.89;;;2.89;;
68942;SDS011;60852;52.190;4.422;2022-08-11T17:56:25;2.92;;;2.92;;
68942;SDS011;60852;52.190;4.422;2022-08-11T17:59:12;2.89;;;2.89;;
68942;SDS011;60852;52.190;4.422;2022-08-11T18:01:59;2.86;;;2.86;;
68942;SDS011;60852;52.190;4.422;2022-08-11T18:04:48;2.77;;;2.77;;
68942;SDS011;60852;52.190;4.422;2022-08-11T18:07:16;2.80;;;2.80;;
68942;SDS011;60852;52.190;4.422;2022-08-11T18:10:04;2.81;;;2.81;;
68942;SDS011;60852;52.190;4.422;2022-08-11T18:12:51;2.62;;;2.62;;
68942;SDS011;60852;52.190;4.422;2022-08-11T18:15:39;2.97;;;2.97;;
68942;SDS011;60852;52.190;4.422;2022-08-11T18:18:26;2.78;;;2.78;;
68942;SDS011;60852;52.190;4.422;2022-08-11T18:21:12;2.83;;;2.83;;
68942;SDS011;60852;52.190;4.422;2022-08-11T18:24:06;2.80;;;2.80;;
68942;SDS011;60852;52.190;4.422;2022-08-11T18:26:55;2.87;;;2.87;;
68942;SDS011;60852;52.190;4.422;2022-08-11T18:29:44;3.09;;;3.09;;
68942;SDS011;60852;52.190;4.422;2022-08-11T18:32:33;3.22;;;3.22;;
68942;SDS011;60852;52.190;4.422;2022-08-11T18:35:20;3.61;;;3.61;;
68942;SDS011;60852;52.190;4.422;2022-08-11T18:38:08;3.12;;;3.12;;
68942;SDS011;60852;52.190;4.422;2022-08-11T18:40:55;3.58;;;3.58;;
68942;SDS011;60852;52.190;4.422;2022-08-11T18:43:42;3.36;;;3.36;;
68942;SDS011;60852;52.190;4.422;2022-08-11T18:46:36;3.41;;;3.41;;
68942;SDS011;60852;52.190;4.422;2022-08-11T18:49:26;3.47;;;3.47;;
68942;SDS011;60852;52.190;4.422;2022-08-11T18:52:16;3.37;;;3.37;;
68942;SDS011;60852;52.190;4.422;2022-08-11T18:55:02;3.48;;;3.48;;
68942;SDS011;60852;52.190;4.422;2022-08-11T18:57:57;3.76;;;3.76;;
68942;SDS011;60852;52.190;4.422;2022-08-11T19:00:47;3.57;;;3.57;;
68942;SDS011;60852;52.190;4.422;2022-08-11T19:03:34;3.95;;;3.95;;
68942;SDS011;60852;52.190;4.422;2022-08-11T19:06:21;3.83;;;3.83;;
68942;SDS011;60852;52.190;4.422;2022-08-11T19:09:14;3.82;;;3.82;;
68942;SDS011;60852;52.190;4.422;2022-08-11T19:12:00;4.02;;;4.02;;
68942;SDS011;60852;52.190;4.422;2022-08-11T19:14:47;3.87;;;3.87;;
68942;SDS011;60852;52.190;4.422;2022-08-11T19:17:35;3.66;;;3.66;;
68942;SDS011;60852;52.190;4.422;2022-08-11T19:20:24;3.87;;;3.87;;
68942;SDS011;60852;52.190;4.422;2022-08-11T19:23:14;3.67;;;3.67;;
68942;SDS011;60852;52.190;4.422;2022-08-11T19:26:02;3.92;;;3.92;;
68942;SDS011;60852;52.190;4.422;2022-08-11T19:28:49;3.72;;;3.72;;
68942;SDS011;60852;52.190;4.422;2022-08-11T19:31:35;4.17;;;4.17;;
68942;SDS011;60852;52.190;4.422;2022-08-11T19:34:22;3.93;;;3.93;;
68942;SDS011;60852;52.190;4.422;2022-08-11T19:37:08;3.82;;;3.82;;
68942;SDS011;60852;52.190;4.422;2022-08-11T19:39:54;4.03;;;4.03;;
68942;SDS011;60852;52.190;4.422;2022-08-11T19:42:46;3.88;;;3.88;;
68942;SDS011;60852;52.190;4.422;2022-08-11T19:45:33;3.78;;;3.78;;